Time;durP1;ratioP1;P1;durP2;ratioP2;P2;SDS_P1;SDS_P2;PMS_P1;PMS_P2;Temp;Humidity;BMP_temperature;BMP_pressure;BME280_temperature;BME280_humidity;BME280_pressure;Samples;Min_cycle;Max_cycle;Signal;HPM_P1;HPM_P2
2021/07/22 00:02:11;;;;;;;0.75;0.75;;;18.70;74.40;;;21.59;60.95;102216.09;5036516;27;96758;-71
2021/07/22 00:04:40;;;;;;;1.30;1.20;;;18.60;73.90;;;21.55;60.33;102214.41;5036356;27;97233;-71
2021/07/22 00:07:10;;;;;;;2.50;1.45;;;18.60;73.90;;;21.49;61.00;102215.78;5036527;27;96840;-71
2021/07/22 00:09:39;;;;;;;0.47;0.47;;;18.50;73.90;;;21.44;61.29;102216.78;5037127;27;96920;-71
2021/07/22 00:12:10;;;;;;;1.52;1.35;;;18.50;74.00;;;21.39;60.77;102222.47;5032014;27;97628;-71
2021/07/22 00:14:40;;;;;;;7.32;1.40;;;18.50;74.00;;;21.39;60.81;102227.91;5034737;27;97640;-71
2021/07/22 00:17:09;;;;;;;0.98;0.98;;;18.40;74.00;;;21.39;61.32;102227.91;5042564;27;96863;-71
2021/07/22 00:19:39;;;;;;;5.20;1.58;;;18.40;74.10;;;21.43;61.54;102222.56;5040019;27;96913;-71
2021/07/22 00:22:09;;;;;;;1.17;0.88;;;18.40;74.20;;;21.46;61.39;102219.16;5034266;27;96874;-71
2021/07/22 00:24:38;;;;;;;1.77;0.93;;;18.40;74.20;;;21.49;60.88;102216.56;5044051;27;97519;-71
2021/07/22 00:27:10;;;;;;;1.70;0.98;;;18.40;74.20;;;21.56;60.33;102211.34;5036749;27;97196;-71
2021/07/22 00:29:38;;;;;;;2.47;0.80;;;18.40;74.20;;;21.45;61.02;102221.09;5036573;27;97598;-71
2021/07/22 00:32:10;;;;;;;2.95;1.92;;;18.40;74.10;;;21.43;60.79;102220.66;5035592;27;97531;-71
2021/07/22 00:34:39;;;;;;;3.10;2.13;;;18.40;74.10;;;21.36;60.73;102206.78;5043157;27;97359;-71
2021/07/22 00:37:09;;;;;;;1.40;1.10;;;18.30;74.10;;;21.31;60.21;102206.19;5034149;27;98139;-71
2021/07/22 00:39:38;;;;;;;2.55;1.60;;;18.30;74.10;;;21.20;60.32;102200.38;5041806;27;97378;-71
2021/07/22 00:42:07;;;;;;;0.30;0.30;;;18.20;74.10;;;21.21;60.92;102196.50;5030674;27;97012;-71
2021/07/22 00:44:36;;;;;;;1.80;1.58;;;18.20;74.20;;;21.19;60.44;102196.03;5039409;27;97744;-71
2021/07/22 00:47:06;;;;;;;6.13;1.65;;;18.20;74.30;;;21.19;61.48;102198.78;5037158;27;96952;-71
2021/07/22 00:49:36;;;;;;;0.80;0.80;;;18.10;74.20;;;21.11;60.87;102199.66;5034896;27;97369;-71
2021/07/22 00:52:05;;;;;;;0.50;0.50;;;18.10;74.30;;;21.17;60.91;102192.09;5022932;27;97391;-71
2021/07/22 00:54:35;;;;;;;0.65;0.65;;;18.00;74.30;;;21.13;61.07;102200.13;5035472;27;97868;-71
2021/07/22 00:57:05;;;;;;;3.83;1.58;;;18.00;74.30;;;21.05;61.10;102194.75;5037787;27;96831;-71
2021/07/22 00:59:38;;;;;;;3.92;2.17;;;17.90;74.30;;;20.98;60.85;102200.75;5048830;27;96984;-71
2021/07/22 01:02:08;;;;;;;2.08;1.65;;;17.90;74.40;;;20.93;61.19;102200.97;5030787;27;97864;-71
2021/07/22 01:04:38;;;;;;;2.67;0.90;;;17.90;74.50;;;20.91;61.13;102203.22;5018584;27;97689;-72
2021/07/22 01:07:06;;;;;;;1.60;1.45;;;17.80;74.50;;;20.95;60.51;102201.41;5019021;27;96954;-70
2021/07/22 01:09:37;;;;;;;0.65;0.65;;;17.90;74.60;;;20.97;60.54;102195.66;5036495;27;97027;-70
2021/07/22 01:12:07;;;;;;;1.40;0.85;;;17.80;74.50;;;20.98;60.25;102195.28;5038810;27;97999;-70
2021/07/22 01:14:36;;;;;;;1.27;1.08;;;17.80;74.50;;;20.90;60.60;102201.63;5035442;27;97664;-70
2021/07/22 01:17:26;;;;;;;4.18;2.60;;;17.80;74.50;;;20.95;60.39;102200.63;5039692;27;96875;-70
2021/07/22 01:19:56;;;;;;;2.28;1.88;;;17.80;74.60;;;20.98;60.13;102200.75;5026180;27;96959;-70
2021/07/22 01:22:32;;;;;;;6.15;1.90;;;17.80;75.20;;;20.99;61.08;102201.56;5035787;27;96813;-70
2021/07/22 01:25:01;;;;;;;2.03;1.63;;;17.80;74.50;;;20.91;61.23;102199.72;5038670;27;97829;-69
2021/07/22 01:27:32;;;;;;;3.75;0.98;;;17.80;74.50;;;20.94;61.06;102193.59;5028291;27;96732;-69
2021/07/22 01:30:10;;;;;;;3.75;1.50;;;17.70;74.50;;;20.95;60.73;102192.47;5033314;27;96717;-69
2021/07/22 01:32:40;;;;;;;1.65;1.05;;;17.70;74.50;;;20.88;60.75;102194.94;5026341;27;98013;-69
2021/07/22 01:35:12;;;;;;;0.80;0.80;;;17.70;74.50;;;20.80;61.37;102193.84;5017258;27;96862;-69
2021/07/22 01:37:45;;;;;;;3.88;1.60;;;17.70;74.50;;;20.84;61.01;102194.81;5038501;27;96768;-69
2021/07/22 01:40:15;;;;;;;0.52;0.52;;;17.70;74.50;;;20.82;61.04;102194.34;5051009;27;96892;-70
2021/07/22 01:42:46;;;;;;;1.00;0.77;;;17.60;74.50;;;20.81;60.62;102195.44;5033592;27;97999;-70
2021/07/22 01:45:16;;;;;;;1.75;1.27;;;17.60;74.50;;;20.81;61.05;102195.44;5036366;27;97663;-69
2021/07/22 01:47:47;;;;;;;25.83;2.55;;;17.60;74.50;;;20.80;60.84;102193.03;5034425;27;96909;-69
2021/07/22 01:50:16;;;;;;;1.75;1.65;;;17.60;74.60;;;20.86;60.96;102198.00;5033838;27;96780;-69
2021/07/22 01:52:46;;;;;;;8.48;2.67;;;17.60;74.60;;;20.76;60.80;102190.22;5031447;27;97904;-70
2021/07/22 01:55:15;;;;;;;1.00;1.00;;;17.60;74.60;;;20.72;60.77;102194.75;5036594;27;96798;-70
2021/07/22 01:57:52;;;;;;;10.35;2.45;;;17.60;74.60;;;20.71;60.75;102195.06;5031269;27;96802;-71
2021/07/22 02:00:24;;;;;;;;;;;17.60;74.60;;;20.60;60.72;102194.66;5050048;27;97077;-71
2021/07/22 02:02:59;;;;;;;3.42;1.85;;;17.50;74.60;;;20.58;61.04;102196.91;5028674;27;98096;-71
2021/07/22 02:05:39;;;;;;;0.52;0.52;;;17.50;74.60;;;20.54;60.76;102199.84;5029802;27;97666;-71
2021/07/22 02:08:09;;;;;;;4.20;1.63;;;17.50;74.60;;;20.51;61.11;102203.25;5038094;27;97390;-71
2021/07/22 02:10:38;;;;;;;6.50;2.97;;;17.40;74.60;;;20.48;60.93;102190.28;5038088;27;98310;-71
2021/07/22 02:13:07;;;;;;;1.63;1.17;;;17.40;74.60;;;20.51;60.79;102195.06;5033064;27;97936;-71
2021/07/22 02:15:44;;;;;;;4.88;2.75;;;17.30;74.60;;;20.48;60.95;102193.81;5033385;27;97163;-71
2021/07/22 02:18:16;;;;;;;2.55;1.15;;;17.30;74.70;;;20.44;60.81;102202.97;5042807;27;96953;-71
2021/07/22 02:20:45;;;;;;;1.20;0.88;;;17.30;74.70;;;20.37;61.11;102205.41;5033664;27;96975;-71
2021/07/22 02:23:17;;;;;;;1.23;1.15;;;17.20;74.70;;;20.32;61.29;102197.44;5052432;27;99850;-71
2021/07/22 02:26:10;;;;;;;2.00;1.15;;;17.20;74.80;;;20.34;60.43;102206.91;5024338;27;97192;-70
2021/07/22 02:28:39;;;;;;;1.42;1.33;;;17.10;74.80;;;20.31;60.45;102202.13;5034037;27;96791;-70
2021/07/22 02:31:08;;;;;;;4.65;0.93;;;17.10;74.80;;;20.29;60.77;102198.13;5038048;27;97252;-70
2021/07/22 02:33:37;;;;;;;7.85;2.28;;;17.10;74.90;;;20.27;61.11;102198.47;5022258;27;96823;-70
2021/07/22 02:36:07;;;;;;;0.52;0.52;;;17.10;74.90;;;20.26;60.52;102199.56;5026284;27;96823;-70
2021/07/22 02:38:46;;;;;;;2.53;0.70;;;17.10;74.90;;;20.23;61.00;102200.22;5038447;27;97169;-70
2021/07/22 02:41:15;;;;;;;2.50;1.67;;;17.10;75.00;;;20.22;61.29;102197.84;5054581;27;97664;-70
2021/07/22 02:43:44;;;;;;;4.10;2.90;;;17.00;74.90;;;20.17;60.60;102211.66;5034462;27;98318;-70
2021/07/22 02:46:14;;;;;;;0.88;0.88;;;17.00;74.90;;;20.11;60.82;102210.22;5026360;27;97393;-70
2021/07/22 02:48:57;;;;;;;0.32;0.32;;;16.90;74.90;;;20.07;61.14;102201.13;5035548;27;97811;-70
2021/07/22 02:51:29;;;;;;;1.23;1.13;;;16.90;74.90;;;20.01;61.26;102210.63;5023172;27;96867;-70
2021/07/22 02:54:00;;;;;;;0.95;0.75;;;16.90;75.00;;;19.96;60.90;102206.13;5046038;27;97846;-70
2021/07/22 02:56:30;;;;;;;0.50;0.50;;;16.80;75.00;;;19.93;61.73;102214.16;5025642;27;96922;-70
2021/07/22 02:59:04;;;;;;;;;;;16.80;75.00;;;19.83;61.48;102211.81;5043813;27;96863;-70
2021/07/22 03:01:35;;;;;;;2.58;0.93;;;16.80;75.10;;;19.79;61.38;102213.56;5038749;27;96963;-70
2021/07/22 03:04:16;;;;;;;1.98;0.90;;;16.80;75.10;;;19.81;61.30;102209.41;5035329;27;98067;-71
2021/07/22 03:06:54;;;;;;;9.32;1.20;;;16.70;75.10;;;19.79;61.65;102208.13;5040647;27;97839;-71
2021/07/22 03:09:25;;;;;;;1.75;1.35;;;16.70;75.20;;;19.72;61.90;102208.66;5040724;27;97090;-70
2021/07/22 03:11:54;;;;;;;3.03;1.80;;;16.70;75.20;;;19.69;61.49;102209.31;5047302;27;100012;-71
2021/07/22 03:14:23;;;;;;;0.85;0.43;;;16.60;75.20;;;19.69;61.81;102214.75;5027032;27;98547;-71
2021/07/22 03:16:53;;;;;;;2.40;1.30;;;16.60;75.20;;;19.69;61.51;102212.03;5035287;27;96789;-71
2021/07/22 03:19:36;;;;;;;1.45;1.15;;;16.60;75.30;;;19.68;61.69;102209.63;5030112;27;96761;-71
2021/07/22 03:22:19;;;;;;;4.32;1.38;;;16.60;75.30;;;19.69;61.38;102209.31;5037983;27;96885;-71
2021/07/22 03:25:09;;;;;;;8.10;1.67;;;16.60;75.30;;;19.68;61.37;102215.06;5037643;27;97865;-71
2021/07/22 03:27:49;;;;;;;4.07;1.67;;;16.60;75.30;;;19.66;61.71;102211.88;5054153;27;97209;-71
2021/07/22 03:30:31;;;;;;;0.80;0.80;;;16.60;75.30;;;19.74;61.45;102219.19;5038733;27;96865;-71
2021/07/22 03:33:19;;;;;;;5.15;0.55;;;16.50;75.30;;;19.78;61.36;102209.25;5040475;27;97000;-70
2021/07/22 03:35:51;;;;;;;0.15;0.15;;;16.60;75.30;;;19.77;60.96;102213.91;5042162;27;96827;-70
2021/07/22 03:38:24;;;;;;;1.67;1.33;;;16.60;75.30;;;19.76;61.19;102208.78;5029096;27;97856;-70
2021/07/22 03:41:18;;;;;;;1.63;1.35;;;16.60;75.20;;;19.75;61.47;102210.72;5018464;27;96757;-70
2021/07/22 03:43:50;;;;;;;0.35;0.35;;;16.60;75.20;;;19.76;61.06;102203.34;5040557;27;97077;-70
2021/07/22 03:46:18;;;;;;;1.85;1.33;;;16.60;75.20;;;19.74;61.24;102202.88;5036328;27;97898;-70
2021/07/22 03:48:48;;;;;;;3.45;1.17;;;16.60;75.20;;;19.80;60.81;102209.72;5037317;27;96850;-70
2021/07/22 03:51:20;;;;;;;3.30;0.50;;;16.60;75.10;;;19.80;60.82;102209.72;5034092;27;97493;-70
2021/07/22 03:53:49;;;;;;;0.85;0.85;;;16.60;75.10;;;19.77;61.18;102210.38;5035568;27;97045;-70
2021/07/22 03:56:20;;;;;;;0.95;0.85;;;16.60;75.10;;;19.83;60.71;102207.16;5037468;27;96853;-70
2021/07/22 03:59:03;;;;;;;0.98;0.98;;;16.60;75.10;;;19.85;61.46;102204.13;5036957;27;97121;-70
2021/07/22 04:01:40;;;;;;;2.35;1.17;;;16.60;75.10;;;19.80;60.69;102196.13;5025259;27;96859;-70
2021/07/22 04:04:16;;;;;;;2.55;1.63;;;16.60;75.00;;;19.75;60.85;102199.03;5036602;27;99799;-70
2021/07/22 04:06:48;;;;;;;5.25;2.90;;;16.60;75.00;;;19.76;60.76;102197.91;5035050;27;97903;-70
2021/07/22 04:09:26;;;;;;;0.22;0.22;;;16.60;74.90;;;19.73;61.39;102199.38;5039781;27;96906;-70
2021/07/22 04:12:18;;;;;;;0.47;0.17;;;16.60;75.00;;;19.73;61.11;102201.28;5029482;27;96992;-70
2021/07/22 04:15:16;;;;;;;0.88;0.45;;;16.60;74.90;;;19.81;61.06;102200.44;5020306;27;96870;-71
2021/07/22 04:17:50;;;;;;;3.00;1.83;;;16.60;74.90;;;19.92;61.08;102202.47;5034675;27;97029;-71
2021/07/22 04:20:34;;;;;;;2.17;1.98;;;16.70;75.00;;;20.03;60.17;102202.94;5033379;27;97492;-71
2021/07/22 04:23:32;;;;;;;0.95;0.82;;;16.70;74.90;;;20.08;59.95;102203.53;4982711;27;97509;-71
2021/07/22 04:26:15;;;;;;;1.05;1.00;;;16.80;74.80;;;20.15;60.13;102197.59;5037702;27;97267;-71
2021/07/22 04:28:52;;;;;;;10.00;2.25;;;16.80;74.60;;;20.17;60.28;102192.59;5051317;27;97016;-71
2021/07/22 04:31:24;;;;;;;2.63;2.42;;;16.90;74.70;;;20.26;60.54;102198.78;5043776;27;97620;-71
2021/07/22 04:34:19;;;;;;;4.47;1.52;;;16.90;74.60;;;20.29;60.26;102204.38;5032830;27;97485;-71
2021/07/22 04:37:13;;;;;;;0.85;0.85;;;17.00;74.50;;;20.39;59.36;102205.88;5034246;27;97211;-71
2021/07/22 04:40:01;;;;;;;1.10;0.98;;;17.10;74.40;;;20.50;60.06;102205.16;5037785;27;97364;-71
2021/07/22 04:43:11;;;;;;;0.57;0.57;;;17.20;74.20;;;20.67;58.85;102213.97;5009306;28;97788;-70
2021/07/22 04:46:03;;;;;;;0.75;0.60;;;17.30;74.20;;;20.71;59.15;102212.19;5024668;27;96910;-71
2021/07/22 04:48:50;;;;;;;5.13;2.60;;;17.30;74.00;;;20.82;58.93;102210.69;5034996;27;96817;-72
2021/07/22 04:51:29;;;;;;;1.00;0.88;;;17.40;74.00;;;20.94;59.56;102208.00;5036926;27;98412;-72
2021/07/22 04:54:13;;;;;;;;;;;17.50;73.80;;;21.06;58.80;102210.78;5041024;27;97710;-72
2021/07/22 04:56:42;;;;;;;0.70;0.70;;;17.60;73.70;;;21.23;58.87;102213.31;5036040;27;97380;-72
2021/07/22 04:59:10;;;;;;;3.72;2.15;;;17.70;73.50;;;21.40;59.11;102207.69;5045026;27;96749;-72
2021/07/22 05:01:41;;;;;;;1.88;1.02;;;17.90;73.40;;;21.57;57.96;102202.00;5034585;27;97004;-72
2021/07/22 05:04:17;;;;;;;0.68;0.68;;;18.00;73.10;;;21.71;58.13;102207.97;5035713;27;97657;-72
2021/07/22 05:06:51;;;;;;;5.20;3.05;;;18.10;73.00;;;21.85;57.87;102213.88;5035088;27;97153;-72
2021/07/22 05:09:48;;;;;;;4.57;2.25;;;18.30;72.80;;;21.99;57.14;102214.34;5028448;27;97288;-72
2021/07/22 05:12:35;;;;;;;1.55;1.35;;;18.50;72.70;;;22.26;57.23;102213.63;5032683;27;96712;-72
2021/07/22 05:15:23;;;;;;;0.65;0.55;;;18.60;72.50;;;22.57;56.48;102220.06;5031701;27;98070;-72
2021/07/22 05:18:19;;;;;;;1.65;1.30;;;18.80;72.30;;;22.73;56.93;102218.19;5036175;27;97043;-72
2021/07/22 05:21:19;;;;;;;0.88;0.40;;;19.00;72.10;;;22.75;56.96;102223.31;5039951;27;97061;-72
2021/07/22 05:24:10;;;;;;;2.10;1.05;;;19.10;71.90;;;22.89;56.47;102227.22;5038385;27;97382;-71
2021/07/22 05:26:57;;;;;;;9.20;1.20;;;19.30;71.80;;;23.09;56.49;102220.78;5033356;27;96814;-70
2021/07/22 05:29:44;;;;;;;0.65;0.52;;;19.50;71.60;;;23.34;56.04;102216.78;5032575;27;99404;-71
2021/07/22 05:32:30;;;;;;;4.35;1.77;;;19.70;71.40;;;23.63;55.60;102229.25;5051736;27;96989;-70
2021/07/22 05:35:21;;;;;;;1.75;1.60;;;19.80;71.20;;;23.83;55.44;102220.00;5033710;27;97863;-70
2021/07/22 05:38:09;;;;;;;1.27;1.23;;;20.00;71.00;;;24.36;54.41;102218.13;5044103;27;97811;-70
2021/07/22 05:40:38;;;;;;;1.25;0.90;;;20.20;70.80;;;25.27;52.83;102227.47;5032409;27;96760;-72
2021/07/22 05:43:07;;;;;;;2.20;1.73;;;20.60;70.70;;;25.53;53.35;102228.34;5038234;27;97403;-72
2021/07/22 05:45:36;;;;;;;2.75;1.38;;;21.00;70.70;;;25.68;53.56;102227.41;5034797;27;98032;-70
2021/07/22 05:48:06;;;;;;;0.47;0.47;;;21.20;70.70;;;25.97;53.17;102229.47;5033947;27;96998;-70
2021/07/22 05:50:36;;;;;;;2.15;1.50;;;21.50;70.60;;;26.49;52.94;102227.50;5036526;27;96826;-70
2021/07/22 05:53:06;;;;;;;3.47;1.13;;;21.90;70.20;;;26.49;53.32;102230.25;5036614;27;96917;-70
2021/07/22 05:55:35;;;;;;;4.07;1.40;;;22.20;70.00;;;26.04;54.46;102227.63;5034371;27;96697;-70
2021/07/22 05:58:06;;;;;;;2.55;1.20;;;22.20;70.10;;;25.62;56.00;102229.66;5023057;27;97911;-70
2021/07/22 06:00:36;;;;;;;1.58;1.05;;;22.10;70.30;;;25.45;56.05;102220.34;5031632;27;96830;-70
2021/07/22 06:03:05;;;;;;;0.43;0.43;;;21.90;70.40;;;25.36;55.84;102226.06;5034207;27;97530;-71
2021/07/22 06:05:36;;;;;;;4.32;2.00;;;21.80;70.60;;;25.60;55.49;102225.72;5019676;27;97488;-70
2021/07/22 06:08:07;;;;;;;3.15;0.88;;;21.90;70.60;;;28.91;48.42;102224.88;5034035;27;97652;-70
2021/07/22 06:10:35;;;;;;;2.25;0.88;;;23.30;69.00;;;31.29;44.56;102229.69;5043064;27;97334;-70
2021/07/22 06:13:06;;;;;;;4.55;2.42;;;25.00;66.60;;;32.26;44.02;102216.16;5041754;27;97171;-70
2021/07/22 06:15:46;;;;;;;1.38;0.80;;;26.30;64.90;;;34.61;41.23;102223.13;5042876;27;96962;-70
2021/07/22 06:18:15;;;;;;;1.42;1.05;;;28.10;63.50;;;35.83;40.59;102222.28;5039212;27;97266;-70
2021/07/22 06:20:49;;;;;;;9.70;1.98;;;29.30;62.50;;;35.13;42.98;102225.97;5036830;27;96849;-71
2021/07/22 06:23:18;;;;;;;1.13;0.90;;;29.80;61.80;;;35.19;43.65;102213.13;5039049;27;97290;-71
2021/07/22 06:25:47;;;;;;;2.72;1.27;;;30.00;62.80;;;34.38;45.57;102222.44;5039838;27;97871;-71
2021/07/22 06:28:16;;;;;;;1.52;1.33;;;29.80;62.70;;;35.18;44.58;102219.91;5039822;27;97702;-71
2021/07/22 06:30:45;;;;;;;4.43;1.65;;;30.10;63.00;;;33.63;48.54;102215.84;5037000;27;97192;-71
2021/07/22 06:33:14;;;;;;;3.88;1.10;;;29.70;63.60;;;33.34;48.99;102220.28;5045096;27;97866;-71
2021/07/22 06:35:42;;;;;;;0.47;0.47;;;29.40;64.70;;;34.65;46.88;102211.91;5037384;27;98153;-71
2021/07/22 06:38:14;;;;;;;3.70;1.67;;;29.80;64.90;;;34.36;47.30;102220.06;5037082;27;98251;-71
2021/07/22 06:40:43;;;;;;;5.80;1.33;;;29.80;64.20;;;32.79;50.80;102216.34;5039397;27;97286;-71
2021/07/22 06:43:13;;;;;;;2.67;1.40;;;29.20;65.20;;;31.82;52.88;102223.72;5040887;27;97027;-74
2021/07/22 06:45:43;;;;;;;5.45;1.15;;;28.50;66.30;;;31.77;52.47;102216.63;5034627;27;96898;-76
2021/07/22 06:48:12;;;;;;;1.75;0.47;;;28.20;67.00;;;32.01;51.79;102226.69;5037237;27;96808;-74
2021/07/22 06:50:41;;;;;;;1.38;1.27;;;28.00;67.20;;;31.70;52.46;102229.78;5017527;28;97341;-73
2021/07/22 06:53:09;;;;;;;1.52;0.75;;;27.80;67.20;;;31.42;52.78;102227.22;5039272;27;96979;-73
2021/07/22 06:55:40;;;;;;;1.23;1.10;;;27.60;67.70;;;31.49;52.32;102229.94;5043400;27;98127;-74
2021/07/22 06:58:11;;;;;;;1.27;1.10;;;27.50;67.50;;;30.96;53.20;102227.47;5035527;27;96983;-74
2021/07/22 07:00:40;;;;;;;1.67;0.52;;;27.30;67.60;;;30.55;53.89;102227.63;5036934;27;97425;-74
2021/07/22 07:03:10;;;;;;;1.63;0.38;;;27.00;67.90;;;30.33;54.18;102226.16;5040498;27;97076;-72
2021/07/22 07:05:39;;;;;;;0.82;0.47;;;26.80;68.30;;;30.03;54.94;102228.59;5035830;27;97999;-70
2021/07/22 07:08:07;;;;;;;1.30;1.08;;;26.50;68.60;;;29.57;55.44;102228.56;5035313;27;98722;-71
2021/07/22 07:10:36;;;;;;;3.42;1.10;;;26.20;68.90;;;29.42;55.38;102226.16;5035440;27;96970;-73
2021/07/22 07:13:07;;;;;;;0.70;0.70;;;25.90;69.10;;;29.73;54.40;102217.16;5035632;27;97074;-72
2021/07/22 07:15:36;;;;;;;1.85;1.40;;;25.90;69.10;;;30.64;52.13;102225.28;5037885;27;96952;-72
2021/07/22 07:18:06;;;;;;;3.80;0.90;;;26.00;68.70;;;31.24;50.39;102224.56;5033554;27;97759;-72
2021/07/22 07:20:35;;;;;;;3.33;1.70;;;26.30;68.20;;;31.81;49.55;102222.94;5041357;27;96933;-72
2021/07/22 07:23:05;;;;;;;2.30;1.80;;;26.70;67.60;;;31.64;50.11;102229.44;5038254;27;96769;-72
2021/07/22 07:25:33;;;;;;;1.65;1.55;;;26.80;67.20;;;30.76;52.01;102233.91;5040687;27;96976;-73
2021/07/22 07:28:05;;;;;;;1.20;0.68;;;26.60;67.60;;;30.37;53.31;102233.22;5039294;27;97479;-73
2021/07/22 07:30:35;;;;;;;4.93;0.50;;;26.40;68.10;;;30.09;53.28;102232.53;5040397;27;97035;-72
2021/07/22 07:33:05;;;;;;;1.23;1.05;;;26.20;68.20;;;29.79;54.00;102226.59;5035420;27;97037;-73
2021/07/22 07:35:34;;;;;;;1.55;0.65;;;26.10;68.30;;;29.77;53.78;102227.00;5040203;27;98035;-74
2021/07/22 07:38:05;;;;;;;0.75;0.75;;;25.90;68.40;;;30.37;52.24;102227.69;5034084;27;97121;-74
2021/07/22 07:40:34;;;;;;;1.17;0.93;;;26.00;68.20;;;32.17;48.10;102229.75;5034021;27;96867;-74
2021/07/22 07:43:05;;;;;;;2.05;1.05;;;26.50;67.60;;;33.17;46.29;102226.09;5012045;27;97316;-73
2021/07/22 07:45:36;;;;;;;45.05;1.13;;;27.10;66.80;;;33.63;45.71;102224.19;5037008;27;97364;-76
2021/07/22 07:48:05;;;;;;;0.75;0.75;;;27.60;66.10;;;34.28;44.89;102226.22;5036588;27;97801;-72
2021/07/22 07:50:34;;;;;;;3.08;1.17;;;27.90;65.60;;;34.24;44.68;102229.06;5034657;27;96768;-73
2021/07/22 07:53:14;;;;;;;2.20;1.02;;;28.10;65.40;;;34.05;45.94;102229.00;5037983;27;96987;-73
2021/07/22 07:55:45;;;;;;;1.40;0.98;;;28.20;65.50;;;34.59;44.71;102233.13;5038579;27;97997;-72
2021/07/22 07:58:14;;;;;;;0.40;0.40;;;28.40;65.80;;;35.41;43.82;102228.13;5037714;27;98859;-72
2021/07/22 08:00:45;;;;;;;0.88;0.73;;;28.70;65.40;;;36.19;42.19;102228.50;5033112;27;98167;-76
2021/07/22 08:03:19;;;;;;;5.18;0.80;;;29.10;65.00;;;38.37;38.08;102235.84;5036190;27;97464;-76
2021/07/22 08:05:50;;;;;;;1.42;1.17;;;29.80;64.50;;;38.69;39.05;102218.59;5037203;27;96835;-76
2021/07/22 08:08:19;;;;;;;2.70;1.10;;;30.60;64.00;;;40.33;36.62;102224.94;5045124;27;98463;-76
2021/07/22 08:10:48;;;;;;;1.63;1.13;;;31.30;63.80;;;39.02;40.59;102227.34;5038010;27;97402;-76
2021/07/22 08:13:17;;;;;;;2.10;1.13;;;31.80;63.60;;;38.17;42.63;102226.97;5038423;27;97263;-75
2021/07/22 08:15:47;;;;;;;1.60;1.05;;;31.70;63.90;;;39.42;40.60;102226.09;5040639;27;96905;-75
2021/07/22 08:18:16;;;;;;;0.77;0.47;;;32.10;63.80;;;38.55;42.70;102226.75;5035801;27;97402;-74
2021/07/22 08:20:45;;;;;;;0.52;0.52;;;32.30;64.10;;;40.58;38.66;102227.41;5036535;27;96911;-75
2021/07/22 08:23:14;;;;;;;4.75;0.77;;;32.40;64.10;;;39.12;42.43;102221.31;5036831;27;96840;-76
2021/07/22 08:25:43;;;;;;;8.07;1.40;;;32.60;63.90;;;38.73;42.83;102226.88;5036347;27;98908;-75
2021/07/22 08:28:12;;;;;;;3.22;1.35;;;32.50;64.20;;;37.03;46.43;102223.25;5041600;27;96985;-76
2021/07/22 08:30:41;;;;;;;2.80;1.23;;;32.20;64.60;;;35.92;48.95;102225.22;5019032;27;97076;-76
2021/07/22 08:33:11;;;;;;;2.83;1.83;;;31.70;65.40;;;35.73;49.71;102226.16;5036329;27;96875;-76
2021/07/22 08:35:40;;;;;;;3.30;0.90;;;31.40;66.00;;;37.33;45.23;102231.84;5034664;27;99478;-76
2021/07/22 08:38:13;;;;;;;1.30;0.93;;;31.40;66.00;;;39.05;41.91;102216.00;5041054;27;97032;-76
2021/07/22 08:40:43;;;;;;;2.33;0.75;;;31.70;65.90;;;43.39;34.49;102215.72;5040816;27;97700;-75
2021/07/22 08:43:13;;;;;;;0.75;0.70;;;32.50;65.40;;;41.79;38.72;102214.97;5025683;27;96980;-73
2021/07/22 08:45:42;;;;;;;1.02;0.82;;;33.30;64.80;;;42.02;38.92;102214.13;5036393;27;98075;-74
2021/07/22 08:48:12;;;;;;;1.50;0.70;;;33.70;64.60;;;43.34;37.37;102216.41;5034806;27;96753;-73
2021/07/22 08:50:44;;;;;;;1.90;1.17;;;34.10;64.40;;;40.57;42.60;102218.19;5019811;27;97236;-76
2021/07/22 08:53:16;;;;;;;1.17;0.55;;;34.20;64.40;;;38.90;46.27;102222.63;5035952;27;96805;-73
2021/07/22 08:55:46;;;;;;;0.40;0.40;;;33.90;64.60;;;37.85;48.05;102218.88;5036736;27;98225;-72
2021/07/22 08:58:15;;;;;;;2.58;1.30;;;33.40;64.90;;;36.50;50.33;102218.44;5036118;27;96733;-72
2021/07/22 09:00:45;;;;;;;0.47;0.38;;;32.90;66.20;;;35.93;50.76;102224.00;5019461;27;96943;-71
2021/07/22 09:03:15;;;;;;;8.32;0.55;;;32.30;66.20;;;38.68;44.69;102224.66;5018001;27;96999;-70
2021/07/22 09:05:45;;;;;;;0.30;0.30;;;32.00;66.60;;;38.33;45.80;102217.63;5042328;27;97884;-71
2021/07/22 09:08:14;;;;;;;1.83;1.10;;;32.20;66.60;;;37.42;47.53;102214.38;5042027;27;97489;-71
2021/07/22 09:10:42;;;;;;;1.00;0.88;;;32.20;66.50;;;37.37;47.28;102209.34;5037747;27;96927;-71
2021/07/22 09:13:25;;;;;;;1.90;0.95;;;32.10;66.50;;;37.08;47.49;102209.47;5018926;27;97049;-71
2021/07/22 09:15:54;;;;;;;0.25;0.25;;;32.00;66.20;;;36.82;48.50;102212.69;5034966;27;98183;-72
2021/07/22 09:18:28;;;;;;;5.18;1.65;;;31.90;66.50;;;36.76;48.46;102206.88;5035743;27;97847;-71
2021/07/22 09:20:56;;;;;;;0.35;0.35;;;31.90;66.50;;;37.29;46.75;102199.63;5041274;27;96869;-71
2021/07/22 09:23:27;;;;;;;0.63;0.63;;;31.90;66.50;;;38.15;45.40;102204.22;5031579;27;96962;-71
2021/07/22 09:25:56;;;;;;;0.40;0.40;;;32.00;66.30;;;37.45;46.84;102202.31;5033644;27;99032;-71
2021/07/22 09:28:30;;;;;;;0.70;0.70;;;32.10;66.20;;;36.41;49.12;102215.50;5035609;27;99156;-71
2021/07/22 09:31:03;;;;;;;1.55;1.40;;;31.90;66.20;;;35.54;50.64;102210.25;5032699;27;96909;-71
2021/07/22 09:33:44;;;;;;;0.55;0.55;;;31.60;66.40;;;34.83;51.61;102215.94;5038254;27;97403;-72
2021/07/22 09:36:33;;;;;;;2.08;1.45;;;31.30;66.40;;;34.68;51.49;102214.66;5039504;27;96926;-72
2021/07/22 09:39:28;;;;;;;1.55;1.25;;;30.90;66.60;;;34.35;51.97;102212.94;5036240;27;97250;-72
2021/07/22 09:42:00;;;;;;;1.83;0.73;;;30.60;66.60;;;33.99;52.62;102219.56;5032406;27;96873;-72
2021/07/22 09:44:34;;;;;;;3.05;1.77;;;30.30;67.10;;;33.63;52.98;102215.84;5034992;27;97132;-73
2021/07/22 09:47:06;;;;;;;1.50;0.85;;;30.00;67.30;;;33.36;52.71;102217.09;5040628;27;98649;-71
2021/07/22 09:49:39;;;;;;;2.97;1.57;;;29.80;67.50;;;33.41;52.49;102213.84;5035603;27;97062;-72
2021/07/22 09:52:23;;;;;;;2.72;0.93;;;29.50;67.50;;;33.90;51.36;102213.00;5039004;27;97353;-72
2021/07/22 09:54:53;;;;;;;1.02;0.88;;;29.40;67.60;;;33.92;50.55;102222.50;5040820;27;96958;-71
2021/07/22 09:57:22;;;;;;;1.05;0.95;;;29.40;67.90;;;34.21;49.91;102218.00;5040461;27;100159;-72
2021/07/22 09:59:52;;;;;;;6.38;1.58;;;29.40;67.50;;;34.12;50.44;102228.09;5040482;27;97656;-71
2021/07/22 10:02:24;;;;;;;1.33;0.70;;;29.40;67.40;;;34.03;50.27;102222.31;5036901;27;96746;-72
2021/07/22 10:05:04;;;;;;;2.17;1.23;;;29.50;67.20;;;35.50;47.47;102217.13;5024876;27;97029;-71
2021/07/22 10:07:35;;;;;;;0.45;0.38;;;29.60;67.20;;;36.79;45.57;102216.38;5037252;27;97887;-71
2021/07/22 10:10:07;;;;;;;1.55;1.08;;;30.10;67.50;;;36.89;45.93;102216.06;5039977;27;97682;-71
2021/07/22 10:12:43;;;;;;;0.88;0.75;;;30.70;67.30;;;36.39;47.49;102209.59;5038063;27;96948;-71
2021/07/22 10:15:12;;;;;;;0.77;0.77;;;30.90;66.70;;;36.40;47.74;102205.56;5040183;27;97007;-71
2021/07/22 10:17:42;;;;;;;1.92;0.88;;;31.10;66.70;;;36.88;47.15;102208.91;5016866;27;97884;-72
2021/07/22 10:20:15;;;;;;;0.57;0.57;;;31.30;66.80;;;37.19;46.89;102201.53;5040027;27;96796;-71
2021/07/22 10:22:45;;;;;;;0.60;0.60;;;31.60;66.90;;;37.61;46.67;102204.97;5036035;27;96943;-71
2021/07/22 10:25:16;;;;;;;2.15;0.80;;;32.00;66.60;;;37.60;46.91;102206.97;5040490;27;97306;-72
2021/07/22 10:27:45;;;;;;;0.70;0.50;;;32.30;66.60;;;37.12;48.21;102201.78;5033508;27;96933;-71
2021/07/22 10:30:21;;;;;;;2.67;1.17;;;32.30;66.00;;;36.66;49.05;102198.84;5036956;27;96922;-71
2021/07/22 10:32:54;;;;;;;2.50;0.88;;;32.30;66.00;;;35.95;50.26;102202.81;5038422;27;96762;-71
2021/07/22 10:35:30;;;;;;;4.30;0.95;;;32.00;66.00;;;35.52;50.72;102197.97;5039838;27;96979;-71
2021/07/22 10:38:13;;;;;;;0.95;0.85;;;31.70;66.00;;;35.31;51.00;102201.31;5054513;27;96928;-72
2021/07/22 10:40:51;;;;;;;1.13;0.68;;;31.40;66.60;;;35.23;50.55;102188.72;5040542;27;97688;-72